Time;durP1;ratioP1;P1;durP2;ratioP2;P2;SDS_P1;SDS_P2;PMS_P1;PMS_P2;Temp;Humidity;BMP_temperature;BMP_pressure;BME280_temperature;BME280_humidity;BME280_pressure;Samples;Min_cycle;Max_cycle;Signal;HPM_P1;HPM_P2
2022/04/11 00:01:56;;;;;;;7.85;3.55;;;3.00;99.90;;;;;;5031031;28;20395;-55
2022/04/11 00:04:22;;;;;;;8.30;3.28;;;3.00;99.90;;;;;;5032558;28;20049;-55
2022/04/11 00:06:47;;;;;;;8.52;3.53;;;3.00;99.90;;;;;;5028990;28;20412;-55
2022/04/11 00:09:13;;;;;;;7.85;3.00;;;2.90;99.90;;;;;;5021219;28;20030;-55
2022/04/11 00:11:39;;;;;;;12.02;3.85;;;2.90;99.90;;;;;;5032604;28;20041;-50
2022/04/11 00:14:04;;;;;;;10.13;3.60;;;2.90;99.90;;;;;;5024303;28;20033;-55
2022/04/11 00:16:31;;;;;;;9.23;3.90;;;2.90;99.90;;;;;;5020899;28;20041;-53
2022/04/11 00:18:57;;;;;;;7.30;3.60;;;2.90;99.90;;;;;;5032747;28;20041;-52
2022/04/11 00:21:22;;;;;;;6.28;3.30;;;2.90;99.90;;;;;;5021175;28;20047;-54
2022/04/11 00:23:48;;;;;;;7.32;3.80;;;2.80;99.90;;;;;;5021187;28;20045;-52
2022/04/11 00:26:14;;;;;;;8.05;3.20;;;2.80;99.90;;;;;;5015668;28;20038;-53
2022/04/11 00:28:39;;;;;;;8.55;3.83;;;2.80;99.90;;;;;;5031837;28;20490;-50
2022/04/11 00:31:05;;;;;;;7.30;3.78;;;2.80;99.90;;;;;;5034351;28;20044;-54
2022/04/11 00:33:30;;;;;;;6.25;3.50;;;2.80;99.90;;;;;;5028405;28;20075;-52
2022/04/11 00:35:56;;;;;;;7.82;3.60;;;2.80;99.90;;;;;;5047460;28;20077;-52
2022/04/11 00:38:21;;;;;;;7.88;3.70;;;2.70;99.90;;;;;;5039906;28;20080;-54
2022/04/11 00:40:47;;;;;;;5.72;3.13;;;2.70;99.90;;;;;;5013754;28;20081;-53
2022/04/11 00:43:36;;;;;;;7.75;3.55;;;2.70;99.90;;;;;;5029151;28;20050;-53
2022/04/11 00:46:02;;;;;;;8.82;3.67;;;2.70;99.90;;;;;;5012148;28;20118;-51
2022/04/11 00:48:28;;;;;;;6.50;3.30;;;2.70;99.90;;;;;;5012718;28;20088;-52
2022/04/11 00:51:02;;;;;;;6.65;3.35;;;2.70;99.90;;;;;;5012256;28;20042;-50
2022/04/11 00:53:30;;;;;;;6.60;3.15;;;2.70;99.90;;;;;;5031557;28;20049;-54
2022/04/11 00:55:57;;;;;;;6.10;3.30;;;2.70;99.90;;;;;;5030955;28;20587;-51
2022/04/11 00:58:23;;;;;;;7.63;2.90;;;2.70;99.90;;;;;;5026856;28;20132;-54
2022/04/11 01:00:49;;;;;;;6.75;3.13;;;2.70;99.90;;;;;;5032015;28;20128;-54
2022/04/11 01:03:15;;;;;;;5.88;3.00;;;2.70;99.90;;;;;;5031907;28;20041;-54
2022/04/11 01:05:42;;;;;;;6.88;3.08;;;2.70;99.90;;;;;;5031973;28;20493;-51
2022/04/11 01:08:09;;;;;;;6.80;3.38;;;2.70;99.90;;;;;;5030604;28;20045;-54
2022/04/11 01:10:35;;;;;;;6.18;2.88;;;2.70;99.90;;;;;;5031373;28;20034;-51
2022/04/11 01:13:01;;;;;;;7.22;3.30;;;2.60;99.90;;;;;;5022197;28;20106;-50
2022/04/11 01:15:27;;;;;;;7.35;3.22;;;2.60;99.90;;;;;;5030491;28;20596;-50
2022/04/11 01:17:53;;;;;;;7.03;3.05;;;2.60;99.90;;;;;;5031415;28;20116;-51
2022/04/11 01:20:22;;;;;;;5.38;3.35;;;2.50;99.90;;;;;;5014975;28;20048;-51
2022/04/11 01:22:48;;;;;;;6.28;2.95;;;2.50;99.90;;;;;;5029415;28;20030;-54
2022/04/11 01:25:15;;;;;;;7.03;3.60;;;2.50;99.90;;;;;;5023285;28;20366;-54
2022/04/11 01:27:42;;;;;;;5.88;3.30;;;2.50;99.90;;;;;;5031146;28;20116;-52
2022/04/11 01:30:11;;;;;;;9.10;3.33;;;2.50;99.90;;;;;;5029931;28;20129;-53
2022/04/11 01:32:37;;;;;;;7.65;3.47;;;2.50;99.90;;;;;;5027043;28;20045;-55
2022/04/11 01:35:03;;;;;;;7.25;3.15;;;2.50;99.90;;;;;;4994289;28;20038;-55
2022/04/11 01:37:29;;;;;;;6.38;3.63;;;2.50;99.90;;;;;;5022564;28;20072;-51
2022/04/11 01:39:55;;;;;;;11.15;3.60;;;2.50;99.90;;;;;;5026974;28;20502;-54
2022/04/11 01:42:20;;;;;;;8.85;4.15;;;2.50;99.90;;;;;;5032672;28;20561;-51
2022/04/11 01:44:46;;;;;;;7.50;4.07;;;2.50;99.90;;;;;;5015602;28;20501;-49
2022/04/11 01:47:12;;;;;;;7.28;4.18;;;2.50;99.90;;;;;;5015261;28;20382;-49
2022/04/11 01:49:38;;;;;;;8.23;3.92;;;2.50;99.90;;;;;;5015391;28;20524;-50
2022/04/11 01:52:04;;;;;;;9.05;3.53;;;2.50;99.90;;;;;;5028819;28;20029;-49
2022/04/11 01:54:30;;;;;;;10.75;3.85;;;2.50;99.90;;;;;;5025338;28;20044;-51
2022/04/11 01:56:56;;;;;;;8.90;3.85;;;2.40;99.90;;;;;;5027923;28;20441;-51
2022/04/11 01:59:21;;;;;;;7.75;3.97;;;2.50;99.90;;;;;;5015528;28;20050;-51
2022/04/11 02:01:47;;;;;;;10.18;4.07;;;2.50;99.90;;;;;;5015121;28;20522;-52
2022/04/11 02:04:12;;;;;;;8.55;3.58;;;2.50;99.90;;;;;;5015024;28;20120;-49
2022/04/11 02:06:38;;;;;;;9.68;3.70;;;2.50;99.90;;;;;;5030860;28;20086;-52
2022/04/11 02:09:04;;;;;;;7.95;4.15;;;2.50;99.90;;;;;;5033718;28;20040;-51
2022/04/11 02:11:29;;;;;;;7.88;4.32;;;2.50;99.90;;;;;;5019397;28;20033;-51
2022/04/11 02:13:55;;;;;;;8.55;4.00;;;2.40;99.90;;;;;;5027200;28;20374;-49
2022/04/11 02:16:22;;;;;;;6.85;3.72;;;2.40;99.90;;;;;;5029936;28;20065;-49
2022/04/11 02:18:48;;;;;;;7.30;4.10;;;2.40;99.90;;;;;;5023531;28;20451;-51
2022/04/11 02:21:13;;;;;;;10.55;4.55;;;2.40;99.90;;;;;;5033031;28;20033;-51
2022/04/11 02:23:39;;;;;;;7.00;3.80;;;2.40;99.90;;;;;;5034231;28;20037;-51
2022/04/11 02:26:04;;;;;;;8.52;3.50;;;2.40;99.90;;;;;;5033542;28;20029;-51
2022/04/11 02:28:30;;;;;;;9.18;3.78;;;2.30;99.90;;;;;;5016096;28;20497;-51
2022/04/11 02:30:56;;;;;;;9.50;3.75;;;2.20;99.90;;;;;;5019321;28;20100;-50
2022/04/11 02:33:21;;;;;;;6.50;3.75;;;2.20;99.90;;;;;;5014399;28;20116;-49
2022/04/11 02:35:47;;;;;;;8.02;4.22;;;2.10;99.90;;;;;;5033067;28;20443;-50
2022/04/11 02:38:13;;;;;;;9.35;4.40;;;2.10;99.90;;;;;;5034173;28;20038;-50
2022/04/11 02:40:39;;;;;;;9.02;4.47;;;2.10;99.90;;;;;;5033432;28;20072;-50
2022/04/11 02:43:05;;;;;;;10.75;3.90;;;2.20;99.90;;;;;;5008318;28;20548;-50
2022/04/11 02:45:30;;;;;;;8.93;4.40;;;2.20;99.90;;;;;;5014328;28;20037;-54
2022/04/11 02:47:56;;;;;;;10.82;3.97;;;2.20;99.90;;;;;;5014103;28;20540;-52
2022/04/11 02:50:21;;;;;;;8.13;4.35;;;2.20;99.90;;;;;;5031109;28;20045;-51
2022/04/11 02:52:47;;;;;;;7.03;3.83;;;2.20;99.90;;;;;;5034598;28;20111;-51
2022/04/11 02:55:13;;;;;;;8.98;4.00;;;2.20;99.90;;;;;;5033579;28;20034;-48
2022/04/11 02:57:38;;;;;;;8.00;4.30;;;2.20;99.90;;;;;;5029178;28;20479;-48
2022/04/11 03:00:10;;;;;;;8.23;4.25;;;2.20;99.90;;;;;;5013968;28;20034;-47
2022/04/11 03:02:36;;;;;;;8.60;4.60;;;2.10;99.90;;;;;;5032366;28;20033;-49
2022/04/11 03:05:02;;;;;;;8.57;4.68;;;2.10;99.90;;;;;;5017095;28;20752;-51
2022/04/11 03:07:28;;;;;;;11.68;4.82;;;2.20;99.90;;;;;;5013848;28;20041;-50
2022/04/11 03:09:54;;;;;;;6.70;4.30;;;2.10;99.90;;;;;;5013890;28;20276;-50
2022/04/11 03:12:20;;;;;;;9.25;4.80;;;2.10;99.90;;;;;;5013683;28;20077;-51
2022/04/11 03:14:48;;;;;;;6.82;4.05;;;2.10;99.90;;;;;;5013814;28;20041;-48
2022/04/11 03:17:15;;;;;;;6.78;4.25;;;2.10;99.90;;;;;;5030422;28;20121;-50
2022/04/11 03:19:41;;;;;;;11.50;4.55;;;2.10;99.90;;;;;;5013740;28;20097;-48
2022/04/11 03:22:06;;;;;;;6.75;4.25;;;2.10;99.90;;;;;;5013784;28;20096;-49
2022/04/11 03:24:32;;;;;;;10.32;4.63;;;2.10;99.90;;;;;;5013502;28;20050;-48
2022/04/11 03:26:57;;;;;;;8.85;5.05;;;2.10;99.90;;;;;;5013139;28;20164;-51
2022/04/11 03:29:23;;;;;;;9.40;4.90;;;2.10;99.90;;;;;;5024675;28;20037;-48
2022/04/11 03:31:49;;;;;;;8.85;4.82;;;2.10;99.90;;;;;;5026150;28;20120;-48
2022/04/11 03:34:14;;;;;;;10.50;5.07;;;2.10;99.90;;;;;;5033057;28;20037;-48
2022/04/11 03:36:40;;;;;;;8.50;5.25;;;2.10;99.90;;;;;;5031727;28;20142;-48
2022/04/11 03:39:05;;;;;;;11.73;5.50;;;2.10;99.90;;;;;;5025088;28;20037;-49
2022/04/11 03:41:31;;;;;;;10.43;6.05;;;2.10;99.90;;;;;;5012937;28;20073;-49
2022/04/11 03:43:56;;;;;;;11.13;5.40;;;2.10;99.90;;;;;;5013180;28;20038;-48
2022/04/11 03:46:22;;;;;;;9.68;5.53;;;2.10;99.90;;;;;;5018661;28;20037;-48
2022/04/11 03:48:47;;;;;;;12.07;5.55;;;2.10;99.90;;;;;;5032715;28;20038;-49
2022/04/11 03:51:13;;;;;;;10.32;5.43;;;2.10;99.90;;;;;;5032027;28;20029;-49
2022/04/11 03:53:38;;;;;;;13.85;5.43;;;2.10;99.90;;;;;;5020262;28;20408;-48
2022/04/11 03:56:05;;;;;;;13.38;5.82;;;2.20;99.90;;;;;;5020445;28;20113;-48
2022/04/11 03:58:31;;;;;;;9.98;6.28;;;2.10;99.90;;;;;;5032146;28;20045;-48
2022/04/11 04:00:56;;;;;;;10.32;5.97;;;2.10;99.90;;;;;;5028137;28;20405;-48
2022/04/11 04:03:22;;;;;;;12.07;6.00;;;2.10;99.90;;;;;;5030638;28;20044;-48
2022/04/11 04:05:47;;;;;;;13.60;5.88;;;2.10;99.90;;;;;;5026747;28;20038;-50
2022/04/11 04:08:14;;;;;;;12.00;6.55;;;2.10;99.90;;;;;;5036393;28;20366;-49
2022/04/11 04:10:40;;;;;;;14.10;6.25;;;2.10;99.90;;;;;;5029304;28;20033;-48
2022/04/11 04:13:06;;;;;;;13.23;6.70;;;2.10;99.90;;;;;;5032526;28;20548;-51
2022/04/11 04:15:32;;;;;;;10.77;6.57;;;2.10;99.90;;;;;;5028593;28;20036;-51
2022/04/11 04:17:57;;;;;;;13.43;6.25;;;2.10;99.90;;;;;;5049788;28;20037;-51
2022/04/11 04:20:25;;;;;;;10.80;6.13;;;2.10;99.90;;;;;;5021072;28;20129;-51
2022/04/11 04:22:52;;;;;;;12.27;6.47;;;2.20;99.90;;;;;;5017042;28;20053;-51
2022/04/11 04:25:17;;;;;;;12.93;6.68;;;2.20;99.90;;;;;;5011962;28;20041;-51
2022/04/11 04:27:43;;;;;;;14.18;6.55;;;2.30;99.90;;;;;;5020425;28;20049;-52
2022/04/11 04:30:09;;;;;;;14.32;7.05;;;2.30;99.90;;;;;;5031885;28;20109;-49
2022/04/11 04:32:34;;;;;;;12.88;6.40;;;2.30;99.90;;;;;;5043593;28;20044;-50
2022/04/11 04:35:01;;;;;;;12.95;6.55;;;2.40;99.90;;;;;;5036704;28;20041;-50
2022/04/11 04:37:26;;;;;;;11.93;6.38;;;2.40;99.90;;;;;;5030576;28;20065;-50
2022/04/11 04:39:52;;;;;;;11.00;5.90;;;2.50;99.90;;;;;;5031257;28;20131;-50
2022/04/11 04:42:21;;;;;;;12.07;6.07;;;2.60;99.90;;;;;;5031179;28;20587;-49
2022/04/11 04:44:47;;;;;;;10.35;5.88;;;2.60;99.90;;;;;;5025498;28;20038;-49
2022/04/11 04:47:12;;;;;;;11.77;5.85;;;2.60;99.90;;;;;;5020805;28;20044;-51
2022/04/11 04:49:38;;;;;;;11.43;5.82;;;2.60;99.90;;;;;;5021348;28;20038;-51
2022/04/11 04:52:04;;;;;;;9.45;5.43;;;2.60;99.90;;;;;;5048199;22;20039;-48
2022/04/11 04:54:29;;;;;;;12.88;5.78;;;2.60;99.90;;;;;;5070086;28;20097;-52
2022/04/11 04:56:55;;;;;;;10.85;5.85;;;2.60;99.90;;;;;;5052230;28;20119;-49
2022/04/11 04:59:20;;;;;;;11.35;5.65;;;2.70;99.90;;;;;;5070799;28;20078;-49
2022/04/11 05:01:46;;;;;;;10.73;5.80;;;2.70;99.90;;;;;;5071409;28;20097;-52
2022/04/11 05:04:11;;;;;;;10.95;5.63;;;2.70;99.90;;;;;;5071692;28;20104;-49
2022/04/11 05:06:37;;;;;;;12.48;5.60;;;2.70;99.90;;;;;;5070798;28;20039;-50
2022/04/11 05:09:03;;;;;;;15.23;5.70;;;2.80;99.90;;;;;;5053546;28;20043;-50
2022/04/11 05:11:28;;;;;;;11.90;5.47;;;2.90;99.90;;;;;;5071367;28;20044;-50
2022/04/11 05:13:54;;;;;;;8.73;5.47;;;2.90;99.90;;;;;;5067618;28;20075;-53
2022/04/11 05:16:19;;;;;;;9.15;5.28;;;2.90;99.90;;;;;;5069162;28;20556;-53
2022/04/11 05:18:45;;;;;;;11.68;5.85;;;2.90;99.90;;;;;;5070793;28;20086;-51
2022/04/11 05:21:11;;;;;;;14.30;6.43;;;3.00;99.90;;;;;;5067411;28;20072;-52
2022/04/11 05:23:36;;;;;;;9.77;5.35;;;3.00;99.90;;;;;;5051496;28;20088;-49
2022/04/11 05:26:05;;;;;;;8.38;5.47;;;3.10;99.90;;;;;;5065543;28;20041;-52
2022/04/11 05:28:32;;;;;;;9.88;5.50;;;3.10;99.90;;;;;;5069436;28;20060;-50
2022/04/11 05:30:58;;;;;;;12.65;5.88;;;3.10;99.90;;;;;;5071172;28;20488;-50
2022/04/11 05:33:23;;;;;;;14.15;5.53;;;3.10;99.90;;;;;;5071159;28;20117;-50
2022/04/11 05:35:49;;;;;;;13.13;5.50;;;3.20;99.90;;;;;;5069015;28;20119;-49
2022/04/11 05:38:16;;;;;;;11.88;5.50;;;3.20;99.90;;;;;;5067185;28;20031;-53
2022/04/11 05:40:42;;;;;;;8.88;5.13;;;3.20;99.90;;;;;;5070110;28;20483;-49
2022/04/11 05:43:08;;;;;;;10.40;4.78;;;3.20;99.90;;;;;;5069779;28;20043;-53
2022/04/11 05:45:33;;;;;;;10.05;4.97;;;3.30;99.90;;;;;;5070038;28;20738;-53
2022/04/11 05:47:59;;;;;;;8.77;4.63;;;3.30;99.90;;;;;;5068952;28;20040;-53
2022/04/11 05:50:24;;;;;;;11.85;5.15;;;3.30;99.90;;;;;;5067956;28;20051;-53
2022/04/11 05:52:50;;;;;;;8.35;4.38;;;3.30;99.90;;;;;;5069645;28;20048;-54
2022/04/11 05:55:15;;;;;;;11.52;4.75;;;3.40;99.90;;;;;;5067354;28;20480;-53
2022/04/11 05:57:41;;;;;;;14.25;4.72;;;3.40;99.90;;;;;;5069908;28;20036;-52
2022/04/11 06:00:07;;;;;;;9.05;4.18;;;3.50;99.90;;;;;;5070902;28;20040;-53
2022/04/11 06:02:33;;;;;;;8.30;4.40;;;3.50;99.90;;;;;;5054451;28;20070;-53
2022/04/11 06:04:59;;;;;;;8.93;4.00;;;3.60;99.90;;;;;;5060835;28;20033;-52
2022/04/11 06:07:27;;;;;;;7.35;4.30;;;3.60;99.90;;;;;;5064006;28;20033;-52
2022/04/11 06:09:53;;;;;;;10.05;4.47;;;3.70;99.90;;;;;;5070310;28;20424;-53
2022/04/11 06:12:20;;;;;;;9.93;4.10;;;3.70;99.90;;;;;;5070387;28;20065;-50
2022/04/11 06:14:46;;;;;;;7.80;3.95;;;3.80;99.90;;;;;;5070279;28;20048;-53
2022/04/11 06:17:11;;;;;;;7.68;4.50;;;3.90;99.90;;;;;;5069339;28;20041;-51
2022/04/11 06:19:37;;;;;;;7.45;4.15;;;4.00;99.90;;;;;;5068255;28;20478;-50
2022/04/11 06:22:03;;;;;;;10.18;4.65;;;4.00;99.90;;;;;;5068875;28;20029;-53
2022/04/11 06:24:28;;;;;;;9.02;4.45;;;4.00;99.90;;;;;;5069274;28;20076;-51
2022/04/11 06:26:54;;;;;;;8.75;4.50;;;4.10;99.90;;;;;;5072033;28;20035;-53
2022/04/11 06:29:20;;;;;;;11.07;5.15;;;4.10;99.90;;;;;;5073245;28;20040;-51
2022/04/11 06:31:45;;;;;;;9.05;4.35;;;4.20;99.90;;;;;;5073297;28;20503;-50
2022/04/11 06:34:11;;;;;;;10.68;4.90;;;4.30;99.90;;;;;;5072985;28;20032;-50
2022/04/11 06:36:36;;;;;;;11.00;5.90;;;4.40;99.90;;;;;;5071325;28;20400;-49
2022/04/11 06:39:02;;;;;;;11.32;5.95;;;4.40;99.90;;;;;;5073161;28;20048;-53
2022/04/11 06:41:28;;;;;;;9.85;5.18;;;4.50;99.90;;;;;;5072818;28;20423;-50
2022/04/11 06:43:53;;;;;;;10.82;5.18;;;4.60;99.90;;;;;;5054886;28;20044;-52
2022/04/11 06:46:19;;;;;;;13.60;5.07;;;4.60;99.90;;;;;;5072803;28;20051;-50
2022/04/11 06:48:44;;;;;;;9.25;4.72;;;4.70;99.90;;;;;;5073600;28;20036;-49
2022/04/11 06:51:10;;;;;;;11.23;4.55;;;4.80;99.90;;;;;;5072331;28;20059;-50
2022/04/11 06:53:35;;;;;;;9.07;4.70;;;4.90;99.90;;;;;;5071649;28;20033;-50
2022/04/11 06:56:01;;;;;;;12.20;6.53;;;4.90;99.90;;;;;;5073408;28;20555;-51
2022/04/11 06:58:27;;;;;;;13.27;6.78;;;5.00;99.90;;;;;;5073519;28;20048;-50
2022/04/11 07:00:52;;;;;;;9.43;6.13;;;5.10;99.90;;;;;;5073552;28;20040;-50
2022/04/11 07:03:17;;;;;;;15.60;10.23;;;5.20;99.90;;;;;;5065376;28;20040;-50
2022/04/11 07:05:43;;;;;;;12.23;6.97;;;5.30;99.90;;;;;;5071997;28;20127;-49
2022/04/11 07:08:09;;;;;;;11.52;5.25;;;5.30;99.90;;;;;;5066372;28;20469;-50
2022/04/11 07:10:37;;;;;;;7.43;5.25;;;5.40;99.90;;;;;;5053521;28;20435;-50
2022/04/11 07:13:03;;;;;;;11.82;6.68;;;5.50;99.90;;;;;;5053625;28;20400;-51
2022/04/11 07:15:28;;;;;;;13.50;5.70;;;5.60;99.90;;;;;;5053430;28;20488;-52
2022/04/11 07:17:54;;;;;;;11.70;6.05;;;5.60;99.90;;;;;;5053366;28;20045;-50
2022/04/11 07:20:20;;;;;;;15.68;8.48;;;5.80;99.90;;;;;;5053441;28;20071;-51
2022/04/11 07:22:45;;;;;;;14.63;6.45;;;5.80;99.90;;;;;;5070258;28;20040;-51
2022/04/11 07:25:11;;;;;;;12.43;5.68;;;5.90;99.90;;;;;;5073543;28;20105;-50
2022/04/11 07:27:36;;;;;;;10.48;5.63;;;6.00;99.90;;;;;;5073023;28;20044;-51
2022/04/11 07:30:03;;;;;;;11.38;5.60;;;6.10;99.90;;;;;;5073324;28;20051;-52
2022/04/11 07:32:29;;;;;;;13.25;5.18;;;6.10;99.90;;;;;;5073016;28;20033;-53
2022/04/11 07:34:58;;;;;;;12.23;5.40;;;6.20;99.90;;;;;;5073528;28;20032;-54
2022/04/11 07:37:25;;;;;;;10.23;5.20;;;6.20;99.90;;;;;;5071871;28;20036;-50
2022/04/11 07:39:52;;;;;;;8.70;5.25;;;6.30;99.90;;;;;;5072850;28;20044;-53
2022/04/11 07:42:18;;;;;;;11.85;6.15;;;6.40;99.90;;;;;;5073080;28;20359;-53
2022/04/11 07:44:44;;;;;;;10.60;5.65;;;6.50;99.90;;;;;;5071557;28;20416;-52
2022/04/11 07:47:10;;;;;;;18.80;5.90;;;6.50;99.90;;;;;;5072791;28;20400;-54
2022/04/11 07:49:35;;;;;;;9.52;6.10;;;6.60;99.90;;;;;;5071599;28;20047;-53
2022/04/11 07:52:01;;;;;;;16.15;8.57;;;6.60;99.90;;;;;;5072409;28;20450;-53
2022/04/11 07:54:26;;;;;;;13.02;7.30;;;6.70;99.90;;;;;;5072471;28;20048;-54
2022/04/11 07:56:52;;;;;;;9.98;6.10;;;6.80;99.90;;;;;;5054553;28;20412;-53
2022/04/11 07:59:17;;;;;;;9.80;5.53;;;6.90;99.90;;;;;;5072725;28;20115;-52
2022/04/11 08:01:43;;;;;;;12.13;6.15;;;7.00;99.90;;;;;;5072617;28;20090;-51
2022/04/11 08:04:08;;;;;;;13.50;8.10;;;7.10;99.90;;;;;;5071815;28;20509;-52
2022/04/11 08:06:34;;;;;;;9.27;5.78;;;7.20;99.90;;;;;;5072125;28;20512;-54
2022/04/11 08:08:59;;;;;;;14.05;6.65;;;7.20;99.90;;;;;;5054624;28;20082;-53
2022/04/11 08:11:25;;;;;;;12.30;6.78;;;7.30;99.90;;;;;;5072479;28;20071;-51
2022/04/11 08:13:51;;;;;;;11.20;6.65;;;7.40;99.90;;;;;;5072374;28;20040;-53
2022/04/11 08:16:17;;;;;;;12.70;7.38;;;7.50;99.90;;;;;;5072080;28;20048;-51
2022/04/11 08:18:43;;;;;;;14.25;8.07;;;7.60;99.90;;;;;;5070806;28;20097;-51
2022/04/11 08:21:09;;;;;;;16.48;7.70;;;7.60;99.90;;;;;;5071300;28;20338;-52
2022/04/11 08:23:34;;;;;;;14.30;6.53;;;7.80;99.90;;;;;;5054167;28;20515;-53
2022/04/11 08:26:00;;;;;;;11.63;6.72;;;7.90;99.90;;;;;;5072041;28;20056;-53
2022/04/11 08:28:25;;;;;;;12.50;7.90;;;8.20;99.90;;;;;;5072070;28;20040;-53
2022/04/11 08:30:51;;;;;;;13.10;7.10;;;8.30;99.90;;;;;;5072168;28;20323;-53
2022/04/11 08:33:16;;;;;;;10.77;6.82;;;8.40;99.90;;;;;;5072006;28;20029;-51
2022/04/11 08:35:43;;;;;;;12.85;6.68;;;8.60;99.90;;;;;;5071185;28;20037;-51
2022/04/11 08:38:08;;;;;;;12.63;6.88;;;8.80;99.90;;;;;;5071651;28;20032;-54
2022/04/11 08:40:35;;;;;;;10.40;6.20;;;8.90;99.90;;;;;;5072068;28;20380;-51
2022/04/11 08:43:02;;;;;;;13.40;6.93;;;9.10;99.90;;;;;;5071998;28;20090;-49
2022/04/11 08:45:28;;;;;;;12.23;6.88;;;9.20;99.90;;;;;;5071821;28;20072;-51
2022/04/11 08:47:54;;;;;;;11.70;7.10;;;9.30;99.90;;;;;;5071217;28;20673;-53
2022/04/11 08:50:20;;;;;;;12.85;7.10;;;9.40;99.90;;;;;;5070404;28;20045;-50
2022/04/11 08:52:50;;;;;;;10.63;7.32;;;9.50;99.90;;;;;;5071312;28;20550;-50
2022/04/11 08:55:16;;;;;;;13.30;7.72;;;9.50;99.90;;;;;;5071611;28;20097;-50
2022/04/11 08:57:41;;;;;;;11.52;7.15;;;9.60;99.90;;;;;;5071597;28;20044;-51
2022/04/11 09:00:13;;;;;;;11.75;7.60;;;9.80;99.90;;;;;;5071667;28;20097;-51
2022/04/11 09:02:41;;;;;;;11.85;7.13;;;10.00;99.90;;;;;;5071719;28;20045;-52
2022/04/11 09:05:07;;;;;;;15.20;7.35;;;10.10;99.90;;;;;;5070219;28;20044;-50
2022/04/11 09:07:47;;;;;;;12.88;7.18;;;10.30;99.50;;;;;;5071238;28;20120;-51
2022/04/11 09:10:18;;;;;;;11.27;7.43;;;10.50;99.90;;;;;;5071598;28;20036;-50
2022/04/11 09:12:55;;;;;;;11.18;7.35;;;10.70;97.40;;;;;;5071562;28;20036;-54
2022/04/11 09:15:23;;;;;;;11.35;7.18;;;10.70;97.10;;;;;;5071364;28;20040;-51
2022/04/11 09:17:49;;;;;;;11.00;7.03;;;10.70;95.20;;;;;;5069460;28;20041;-50
2022/04/11 09:20:23;;;;;;;10.70;7.30;;;10.70;92.90;;;;;;5053634;28;20047;-49
2022/04/11 09:22:49;;;;;;;14.02;7.57;;;10.60;93.50;;;;;;5071467;28;20037;-51
2022/04/11 09:25:31;;;;;;;10.15;6.85;;;10.70;96.30;;;;;;5071183;28;20051;-50
2022/04/11 09:28:12;;;;;;;11.23;6.28;;;10.80;93.20;;;;;;5071621;28;20055;-53
2022/04/11 09:30:39;;;;;;;12.45;7.53;;;10.90;86.60;;;;;;5071479;28;20044;-50
2022/04/11 09:33:07;;;;;;;10.98;7.32;;;10.90;90.90;;;;;;5069031;28;20103;-53
2022/04/11 09:35:38;;;;;;;12.60;7.10;;;11.00;90.80;;;;;;5070013;28;20080;-51
2022/04/11 09:38:11;;;;;;;11.77;6.72;;;11.00;90.50;;;;;;5071161;28;20040;-53
2022/04/11 09:40:40;;;;;;;10.40;6.55;;;11.10;81.70;;;;;;5071078;28;20072;-52
2022/04/11 09:43:07;;;;;;;12.68;6.47;;;11.10;82.40;;;;;;5071079;28;20044;-54
2022/04/11 09:45:38;;;;;;;10.27;6.55;;;11.20;67.40;;;;;;5070964;28;20573;-51
2022/04/11 09:48:04;;;;;;;10.95;6.40;;;11.20;72.30;;;;;;5069357;28;20052;-51
2022/04/11 09:50:32;;;;;;;10.98;6.55;;;11.20;73.10;;;;;;5070202;28;20128;-50
2022/04/11 09:53:11;;;;;;;10.68;6.25;;;11.30;74.80;;;;;;5070897;28;20467;-50
2022/04/11 09:55:38;;;;;;;12.13;6.57;;;11.40;75.30;;;;;;5070971;28;20484;-51
2022/04/11 09:58:04;;;;;;;12.18;6.40;;;11.50;76.10;;;;;;5070997;28;20044;-49
2022/04/11 10:00:32;;;;;;;12.43;6.28;;;11.70;71.80;;;;;;5073507;28;20040;-50
2022/04/11 10:02:59;;;;;;;11.95;6.70;;;11.70;70.70;;;;;;5074153;28;20402;-51
2022/04/11 10:05:25;;;;;;;11.73;6.00;;;11.80;69.40;;;;;;5074649;28;20072;-51
2022/04/11 10:07:55;;;;;;;10.32;6.55;;;11.90;70.20;;;;;;5074407;28;20443;-52
2022/04/11 10:10:24;;;;;;;12.30;5.70;;;11.90;67.00;;;;;;5074710;28;20109;-50
2022/04/11 10:12:52;;;;;;;10.48;5.90;;;12.00;68.10;;;;;;5074707;28;20070;-53
2022/04/11 10:15:18;;;;;;;8.98;6.10;;;12.00;66.00;;;;;;5074624;28;20040;-49
2022/04/11 10:17:45;;;;;;;12.30;5.93;;;12.00;65.60;;;;;;5072638;28;20450;-53
2022/04/11 10:20:10;;;;;;;10.45;6.20;;;12.00;64.10;;;;;;5074464;28;20036;-53
2022/04/11 10:22:51;;;;;;;13.88;7.45;;;12.00;64.90;;;;;;5074479;28;20058;-51
2022/04/11 10:25:18;;;;;;;12.50;7.38;;;12.10;67.50;;;;;;5074316;28;20709;-51
2022/04/11 10:27:44;;;;;;;10.95;6.88;;;12.20;65.10;;;;;;5074239;28;20107;-52
2022/04/11 10:30:27;;;;;;;10.98;7.00;;;12.20;64.80;;;;;;5073628;28;20041;-51
2022/04/11 10:32:54;;;;;;;10.80;7.45;;;12.30;63.60;;;;;;5074108;28;20049;-51
2022/04/11 10:35:39;;;;;;;11.18;7.30;;;12.30;66.50;;;;;;5074276;28;20047;-51
2022/04/11 10:38:06;;;;;;;12.10;6.93;;;12.40;65.00;;;;;;5073224;28;20170;-54
2022/04/11 10:40:32;;;;;;;14.10;7.40;;;12.50;64.00;;;;;;5074051;28;20036;-54
2022/04/11 10:43:01;;;;;;;12.27;7.55;;;12.50;65.40;;;;;;5074061;28;20041;-53
2022/04/11 10:45:34;;;;;;;13.52;8.00;;;12.50;63.80;;;;;;5072672;28;20063;-52
2022/04/11 10:48:00;;;;;;;11.02;7.05;;;12.60;65.30;;;;;;5073978;28;20045;-53
2022/04/11 10:50:42;;;;;;;12.05;7.38;;;12.70;62.90;;;;;;5074082;28;20077;-53
2022/04/11 10:53:10;;;;;;;11.88;6.97;;;12.70;63.90;;;;;;5069215;22;20098;-49
2022/04/11 10:55:52;;;;;;;12.35;7.88;;;12.80;62.70;;;;;;5054993;28;20094;-52
2022/04/11 10:58:43;;;;;;;12.20;7.30;;;12.80;63.50;;;;;;5073955;28;20427;-50
2022/04/11 11:01:09;;;;;;;12.15;6.57;;;12.90;60.40;;;;;;5056183;28;20527;-50
2022/04/11 11:03:35;;;;;;;11.63;6.53;;;12.80;57.40;;;;;;5038967;28;20049;-50
2022/04/11 11:06:21;;;;;;;13.18;8.20;;;12.90;56.20;;;;;;5062533;28;20040;-55
2022/04/11 11:08:48;;;;;;;12.68;7.53;;;12.90;58.50;;;;;;5072832;28;20065;-50
2022/04/11 11:11:25;;;;;;;12.85;7.13;;;12.90;57.50;;;;;;5065081;28;20319;-51
2022/04/11 11:13:52;;;;;;;11.38;7.40;;;12.90;58.20;;;;;;5072563;28;20067;-51
2022/04/11 11:16:18;;;;;;;10.90;7.18;;;13.00;58.60;;;;;;5066331;28;20048;-48
2022/04/11 11:18:50;;;;;;;12.32;7.32;;;13.00;58.00;;;;;;5065994;28;20044;-49
2022/04/11 11:21:17;;;;;;;11.13;7.50;;;13.10;57.60;;;;;;5066243;28;20060;-52
2022/04/11 11:24:10;;;;;;;10.95;7.40;;;13.20;56.70;;;;;;5038875;28;20063;-53
2022/04/11 11:26:53;;;;;;;10.93;7.47;;;13.20;56.20;;;;;;5048269;28;20127;-52
2022/04/11 11:29:22;;;;;;;;;;;13.30;58.70;;;;;;5048381;28;20493;-51
2022/04/11 11:31:50;;;;;;;12.90;8.30;;;13.40;57.20;;;;;;5037350;28;19943;-50
2022/04/11 11:34:18;;;;;;;14.77;8.75;;;13.50;57.20;;;;;;5078906;28;20041;-52
2022/04/11 11:36:44;;;;;;;14.38;8.82;;;13.50;58.30;;;;;;5068690;28;20047;-53
2022/04/11 11:39:17;;;;;;;11.38;8.10;;;13.50;58.70;;;;;;5065921;28;20068;-50
2022/04/11 11:41:43;;;;;;;14.40;9.20;;;13.60;57.00;;;;;;5072161;28;20404;-52
2022/04/11 11:44:10;;;;;;;14.82;9.75;;;13.70;58.50;;;;;;5046792;28;20057;-50
2022/04/11 11:46:56;;;;;;;16.05;10.32;;;13.80;56.00;;;;;;5034895;28;20037;-51
2022/04/11 11:49:24;;;;;;;15.32;9.30;;;13.70;57.10;;;;;;5085291;28;20036;-50
2022/04/11 11:51:50;;;;;;;13.02;9.05;;;13.90;58.10;;;;;;5052857;28;20460;-51
2022/04/11 11:54:41;;;;;;;14.38;9.57;;;13.90;56.40;;;;;;5062697;28;20093;-50
2022/04/11 11:57:15;;;;;;;14.70;9.15;;;14.00;55.60;;;;;;5068156;28;20044;-52
2022/04/11 12:00:04;;;;;;;14.95;10.35;;;14.00;55.90;;;;;;5065256;28;20115;-52
2022/04/11 12:05:24;;;;;;;14.10;8.98;;;14.00;56.20;;;;;;5074896;28;20056;-52
2022/04/11 12:08:03;;;;;;;15.50;9.68;;;14.00;55.30;;;;;;5052050;28;20040;-52
2022/04/11 12:10:30;;;;;;;13.95;9.18;;;13.90;55.90;;;;;;5054410;28;20052;-51
2022/04/11 12:12:55;;;;;;;14.50;9.07;;;13.90;55.60;;;;;;5050113;28;20519;-52
2022/04/11 12:15:22;;;;;;;13.55;9.43;;;13.90;55.50;;;;;;5070443;28;20072;-52
2022/04/11 12:17:50;;;;;;;14.30;9.30;;;13.90;55.80;;;;;;5052742;28;20040;-52
2022/04/11 12:20:21;;;;;;;17.15;10.07;;;13.90;56.60;;;;;;5069410;28;20029;-49
2022/04/11 12:23:10;;;;;;;15.55;10.73;;;14.00;55.60;;;;;;5043779;28;20044;-50
2022/04/11 12:25:56;;;;;;;16.90;9.98;;;14.00;55.60;;;;;;5055583;28;20040;-49
2022/04/11 12:28:23;;;;;;;14.57;9.40;;;13.90;58.40;;;;;;5043643;28;20063;-52
2022/04/11 12:31:11;;;;;;;15.95;10.20;;;14.00;57.20;;;;;;5046391;28;20041;-51
2022/04/11 12:33:46;;;;;;;15.00;9.70;;;14.00;56.30;;;;;;5067412;28;20044;-52
2022/04/11 12:36:22;;;;;;;15.02;10.23;;;14.00;57.20;;;;;;5067112;28;20039;-52
2022/04/11 12:38:49;;;;;;;15.73;9.77;;;14.00;55.80;;;;;;5053463;28;20139;-52
2022/04/11 12:41:29;;;;;;;17.50;9.90;;;13.90;56.30;;;;;;5055020;28;20068;-52
2022/04/11 12:44:03;;;;;;;13.82;10.25;;;13.90;57.30;;;;;;5051772;28;20041;-51
2022/04/11 12:46:30;;;;;;;17.13;10.57;;;14.00;57.10;;;;;;5054353;28;20036;-52
2022/04/11 12:48:56;;;;;;;14.90;10.70;;;13.90;57.60;;;;;;5077218;28;20041;-49
2022/04/11 12:51:22;;;;;;;19.05;11.13;;;13.90;58.40;;;;;;5071758;28;20444;-52
2022/04/11 12:53:48;;;;;;;19.08;11.80;;;13.90;58.60;;;;;;5071612;28;20036;-53